createdAt,value
2022-10-18T11:00:47.849Z,17.88
2022-10-18T11:11:10.869Z,17.88
2022-10-18T11:21:35.876Z,25.31
2022-10-18T11:32:21.885Z,25.02
2022-10-18T11:42:50.905Z,24.25
2022-10-18T11:53:21.893Z,24.61
2022-10-18T12:03:58.902Z,24.25
2022-10-18T12:14:19.927Z,24.01
2022-10-18T12:24:36.937Z,24.48
2022-10-18T12:34:54.948Z,23.63
2022-10-18T12:45:32.950Z,22.93
2022-10-18T12:55:55.956Z,23.03
2022-10-18T13:06:08.966Z,22.84
2022-10-18T13:16:30.957Z,22.52
2022-10-18T13:27:31.078Z,22.60
2022-10-18T13:37:41.981Z,22.45
2022-10-18T13:48:02.007Z,22.06
2022-10-18T13:58:15.025Z,21.71
2022-10-18T14:08:32.002Z,21.28
2022-10-18T14:18:48.032Z,21.08
2022-10-18T14:29:13.098Z,20.84
2022-10-18T14:39:32.035Z,20.40
2022-10-18T14:49:54.042Z,20.23
2022-10-18T15:00:10.040Z,19.90
2022-10-18T15:10:26.067Z,19.60
2022-10-18T15:20:41.057Z,19.36
2022-10-18T15:30:54.084Z,18.87
2022-10-18T15:41:06.070Z,18.51
2022-10-18T15:52:07.096Z,18.38
2022-10-18T16:02:21.103Z,17.98
2022-10-18T16:12:34.087Z,17.73
2022-10-18T16:22:47.159Z,17.62
2022-10-18T16:33:00.175Z,17.33
2022-10-18T16:43:13.233Z,17.42
2022-10-18T16:53:27.228Z,17.41
2022-10-18T17:03:40.242Z,17.58
2022-10-18T17:13:53.202Z,17.77
2022-10-18T17:24:08.171Z,17.74
2022-10-18T17:34:27.355Z,17.87
2022-10-18T17:44:40.260Z,17.95
2022-10-18T17:54:53.291Z,17.89
2022-10-18T18:05:06.188Z,17.84
2022-10-18T18:15:20.257Z,18.01
2022-10-18T18:25:33.285Z,17.91
2022-10-18T18:35:46.306Z,17.85
2022-10-18T18:46:06.331Z,17.69
2022-10-18T18:56:25.314Z,17.65
2022-10-18T19:06:46.321Z,17.46
2022-10-18T19:17:01.282Z,17.29
2022-10-18T19:27:22.246Z,16.80
2022-10-18T19:37:35.482Z,16.30
2022-10-18T19:47:55.263Z,15.86
2022-10-18T19:58:08.288Z,15.68
2022-10-18T20:08:21.295Z,15.54
2022-10-18T20:18:34.292Z,15.30
2022-10-18T20:28:47.367Z,15.18
2022-10-18T20:39:01.307Z,14.93
2022-10-18T20:49:22.314Z,14.66
2022-10-18T20:59:35.302Z,14.67
2022-10-18T21:09:48.343Z,14.61
2022-10-18T21:20:01.305Z,14.47
2022-10-18T21:30:14.429Z,14.61
2022-10-18T21:40:27.354Z,14.48
2022-10-18T21:50:46.352Z,14.50
2022-10-18T22:00:59.441Z,14.65
2022-10-18T22:11:12.380Z,14.40
2022-10-18T22:21:26.370Z,14.13
2022-10-18T22:31:41.394Z,13.72
2022-10-18T22:41:54.386Z,13.54
2022-10-18T22:52:07.416Z,13.59
2022-10-18T23:02:20.393Z,13.66
2022-10-18T23:12:32.700Z,13.77
2022-10-18T23:22:45.406Z,13.76
2022-10-18T23:32:58.435Z,13.82
2022-10-18T23:43:11.436Z,13.87
2022-10-18T23:53:24.464Z,13.89
